This is the latest recevied weather packets stored in our database for station/object WD4HMR. If no packets are shown the sender has not sent any weather packets the latest 10 day(s).
| Time | Temp. | Humidity | Pressure | Rain* | Wind** | Luminosity | Snow |
|---|---|---|---|---|---|---|---|
| 1778177404 | 16.67° C | 85% | 1015.3 hPa | 0 mm | - | 1308 W/m² | - |
| 1778177106 | 16.67° C | 88% | 1015.3 hPa | 0 mm | - | 1303 W/m² | - |
| 1778176206 | 16.11° C | 90% | 1015.2 hPa | 0 mm | - | 1283 W/m² | - |
| 1778175005 | 15.56° C | 92% | 1015.2 hPa | 0 mm | - | 1247 W/m² | - |
| 1778174705 | 15.56° C | 92% | 1015.3 hPa | 0 mm | - | 1236 W/m² | - |
| 1778174105 | 15.56° C | 93% | 1015.1 hPa | 0 mm | - | 1213 W/m² | - |
| 1778173805 | 15° C | 94% | 1015 hPa | 0 mm | - | 1200 W/m² | - |
| 1778172905 | 15° C | 94% | 1014.8 hPa | 0 mm | - | 1159 W/m² | - |
| 1778171705 | 14.44° C | 97% | 1013.9 hPa | 0 mm | - | 1097 W/m² | - |
| 1778171104 | 13.89° C | 98% | 1013.7 hPa | 0 mm | - | 1063 W/m² | - |
| 1778167806 | 13.89° C | 99% | 1013 hPa | 0 mm | - | 850 W/m² | - |
| 1778167206 | 13.89° C | 99% | 1012.9 hPa | 0 mm | - | 808 W/m² | - |
| 1778166305 | 13.89° C | 99% | 1012.8 hPa | 0 mm | - | 743 W/m² | - |
| 1778163605 | 13.89° C | 99% | 1012 hPa | 0 mm | - | 549 W/m² | - |
| 1778163305 | 13.89° C | 99% | 1012 hPa | 0 mm | - | 528 W/m² | - |
| 1778162405 | 13.89° C | 100% | 1011.8 hPa | 0 mm | - | 464 W/m² | - |
| 1778162105 | 13.89° C | 100% | 1011.8 hPa | 0 mm | - | 444 W/m² | - |
| 1778161806 | 13.89° C | 100% | 1011.9 hPa | 0 mm | - | 423 W/m² | - |
| 1778160306 | 14.44° C | 100% | 1011.5 hPa | 0 mm | - | 324 W/m² | - |
| 1778158806 | 14.44° C | 99% | 1011.2 hPa | 0 mm | - | 233 W/m² | - |
| 1778158505 | 14.44° C | 99% | 1011.1 hPa | 0 mm | - | 215 W/m² | - |
| 1778158211 | 14.44° C | 100% | 1011.3 hPa | 0 mm | - | 164 W/m² | - |
| 1778157605 | 14.44° C | 100% | 1011.4 hPa | 0 mm | - | 124 W/m² | - |
| 1778157305 | 14.44° C | 100% | 1011.4 hPa | 0 mm | - | 95 W/m² | - |
| 1778156405 | 14.44° C | 100% | 1011 hPa | 0 mm | - | 105 W/m² | - |
* Rain latest hour (hover to see other rain measurements)
** Current wind speed in m/s (hover to see current wind gust speed)